sensor_id;sensor_type;location;lat;lon;timestamp;temperature;humidity
79024;DHT22;70306;44.764;37.688;2024-03-02T04:24:17;6.22;55.85
79024;DHT22;70306;44.764;37.688;2024-03-02T04:25:19;6.26;56.56
79024;DHT22;70306;44.764;37.688;2024-03-02T04:26:21;6.30;56.54
79024;DHT22;70306;44.764;37.688;2024-03-02T04:27:23;6.34;56.21
79024;DHT22;70306;44.764;37.688;2024-03-02T04:28:25;6.37;56.01
79024;DHT22;70306;44.764;37.688;2024-03-02T04:29:27;6.40;56.90
79024;DHT22;70306;44.764;37.688;2024-03-02T04:30:28;6.44;56.81
79024;DHT22;70306;44.764;37.688;2024-03-02T04:31:30;6.51;57.80
79024;DHT22;70306;44.764;37.688;2024-03-02T04:32:32;6.55;56.19
79024;DHT22;70306;44.764;37.688;2024-03-02T04:33:34;6.60;55.31
79024;DHT22;70306;44.764;37.688;2024-03-02T04:34:35;6.67;55.31
79024;DHT22;70306;44.764;37.688;2024-03-02T04:35:37;6.68;54.93
79024;DHT22;70306;44.764;37.688;2024-03-02T04:36:39;6.71;54.33
79024;DHT22;70306;44.764;37.688;2024-03-02T04:37:41;6.78;55.41
79024;DHT22;70306;44.764;37.688;2024-03-02T04:38:43;6.78;54.33
79024;DHT22;70306;44.764;37.688;2024-03-02T04:39:45;6.82;54.68
79024;DHT22;70306;44.764;37.688;2024-03-02T04:40:46;6.88;56.07
79024;DHT22;70306;44.764;37.688;2024-03-02T04:41:48;6.92;55.07
79024;DHT22;70306;44.764;37.688;2024-03-02T04:42:50;6.95;54.85
79024;DHT22;70306;44.764;37.688;2024-03-02T04:43:52;6.96;55.10
79024;DHT22;70306;44.764;37.688;2024-03-02T04:44:53;6.99;55.51
79024;DHT22;70306;44.764;37.688;2024-03-02T04:45:55;7.03;54.49
79024;DHT22;70306;44.764;37.688;2024-03-02T04:46:57;7.09;54.02
79024;DHT22;70306;44.764;37.688;2024-03-02T04:47:59;7.13;54.13
79024;DHT22;70306;44.764;37.688;2024-03-02T04:49:01;7.15;54.35
79024;DHT22;70306;44.764;37.688;2024-03-02T04:50:02;7.17;54.22
79024;DHT22;70306;44.764;37.688;2024-03-02T04:51:05;7.23;53.51
79024;DHT22;70306;44.764;37.688;2024-03-02T04:52:07;7.28;52.98
79024;DHT22;70306;44.764;37.688;2024-03-02T04:53:08;7.34;52.80
79024;DHT22;70306;44.764;37.688;2024-03-02T04:54:10;7.38;52.87
79024;DHT22;70306;44.764;37.688;2024-03-02T04:55:12;7.43;52.27
79024;DHT22;70306;44.764;37.688;2024-03-02T04:56:29;7.46;52.87
79024;DHT22;70306;44.764;37.688;2024-03-02T04:57:34;7.44;52.96
79024;DHT22;70306;44.764;37.688;2024-03-02T04:58:35;7.51;51.70
79024;DHT22;70306;44.764;37.688;2024-03-02T04:59:37;7.55;52.29
79024;DHT22;70306;44.764;37.688;2024-03-02T05:00:39;7.58;51.93
79024;DHT22;70306;44.764;37.688;2024-03-02T05:01:41;7.61;51.46
79024;DHT22;70306;44.764;37.688;2024-03-02T05:02:43;7.68;47.70
79024;DHT22;70306;44.764;37.688;2024-03-02T05:03:44;7.85;47.56
79024;DHT22;70306;44.764;37.688;2024-03-02T05:04:46;7.96;47.91
79024;DHT22;70306;44.764;37.688;2024-03-02T05:05:49;8.00;48.34
79024;DHT22;70306;44.764;37.688;2024-03-02T05:06:51;8.05;47.49
79024;DHT22;70306;44.764;37.688;2024-03-02T05:07:56;8.16;47.23
79024;DHT22;70306;44.764;37.688;2024-03-02T05:08:57;8.19;46.49
79024;DHT22;70306;44.764;37.688;2024-03-02T05:09:59;8.29;46.62
79024;DHT22;70306;44.764;37.688;2024-03-02T05:11:01;8.31;46.98
79024;DHT22;70306;44.764;37.688;2024-03-02T05:12:22;8.40;47.31
79024;DHT22;70306;44.764;37.688;2024-03-02T05:13:41;8.41;46.68
79024;DHT22;70306;44.764;37.688;2024-03-02T05:14:43;8.49;47.25
79024;DHT22;70306;44.764;37.688;2024-03-02T05:15:45;8.51;47.10
79024;DHT22;70306;44.764;37.688;2024-03-02T05:16:48;8.55;47.05
79024;DHT22;70306;44.764;37.688;2024-03-02T05:17:49;8.62;45.40
79024;DHT22;70306;44.764;37.688;2024-03-02T05:18:51;8.69;44.99
79024;DHT22;70306;44.764;37.688;2024-03-02T05:19:53;8.79;44.88
79024;DHT22;70306;44.764;37.688;2024-03-02T05:20:55;8.83;45.76
79024;DHT22;70306;44.764;37.688;2024-03-02T05:21:56;8.87;46.32
79024;DHT22;70306;44.764;37.688;2024-03-02T05:22:58;8.92;45.04
79024;DHT22;70306;44.764;37.688;2024-03-02T05:24:00;8.99;45.91
79024;DHT22;70306;44.764;37.688;2024-03-02T05:25:03;9.00;45.06
79024;DHT22;70306;44.764;37.688;2024-03-02T05:26:05;9.09;44.35
79024;DHT22;70306;44.764;37.688;2024-03-02T05:27:07;9.13;44.71
79024;DHT22;70306;44.764;37.688;2024-03-02T05:28:09;9.20;45.25
79024;DHT22;70306;44.764;37.688;2024-03-02T05:29:11;9.21;44.19
79024;DHT22;70306;44.764;37.688;2024-03-02T05:30:13;9.24;44.95
79024;DHT22;70306;44.764;37.688;2024-03-02T05:31:16;9.28;44.62
79024;DHT22;70306;44.764;37.688;2024-03-02T05:32:18;9.32;44.04
79024;DHT22;70306;44.764;37.688;2024-03-02T05:33:20;9.37;43.90
79024;DHT22;70306;44.764;37.688;2024-03-02T05:34:23;9.44;43.22
79024;DHT22;70306;44.764;37.688;2024-03-02T05:35:25;9.49;43.60
79024;DHT22;70306;44.764;37.688;2024-03-02T05:36:27;9.52;44.23
79024;DHT22;70306;44.764;37.688;2024-03-02T05:37:29;9.59;44.35
79024;DHT22;70306;44.764;37.688;2024-03-02T05:38:30;9.65;43.86
79024;DHT22;70306;44.764;37.688;2024-03-02T05:39:32;9.71;42.80
79024;DHT22;70306;44.764;37.688;2024-03-02T05:40:34;9.78;42.86
79024;DHT22;70306;44.764;37.688;2024-03-02T05:41:37;9.82;43.03
79024;DHT22;70306;44.764;37.688;2024-03-02T05:42:39;9.87;43.33
79024;DHT22;70306;44.764;37.688;2024-03-02T05:43:42;9.91;42.36
79024;DHT22;70306;44.764;37.688;2024-03-02T05:44:44;9.96;40.60
79024;DHT22;70306;44.764;37.688;2024-03-02T05:45:46;10.01;40.43
79024;DHT22;70306;44.764;37.688;2024-03-02T05:46:48;10.08;41.08
79024;DHT22;70306;44.764;37.688;2024-03-02T05:47:50;10.14;41.04
79024;DHT22;70306;44.764;37.688;2024-03-02T05:48:51;10.17;41.20
79024;DHT22;70306;44.764;37.688;2024-03-02T05:49:53;10.21;40.35
79024;DHT22;70306;44.764;37.688;2024-03-02T05:50:55;10.25;40.35
79024;DHT22;70306;44.764;37.688;2024-03-02T05:51:58;10.27;40.26
79024;DHT22;70306;44.764;37.688;2024-03-02T05:52:59;10.31;39.76
79024;DHT22;70306;44.764;37.688;2024-03-02T05:54:01;10.35;39.50
79024;DHT22;70306;44.764;37.688;2024-03-02T05:55:04;10.38;40.01
79024;DHT22;70306;44.764;37.688;2024-03-02T05:56:06;10.44;41.07
79024;DHT22;70306;44.764;37.688;2024-03-02T05:57:08;10.42;40.28
79024;DHT22;70306;44.764;37.688;2024-03-02T05:58:28;10.48;40.58
79024;DHT22;70306;44.764;37.688;2024-03-02T05:59:59;10.53;41.27
79024;DHT22;70306;44.764;37.688;2024-03-02T06:01:01;10.56;41.69
79024;DHT22;70306;44.764;37.688;2024-03-02T06:02:04;10.58;41.39
79024;DHT22;70306;44.764;37.688;2024-03-02T06:03:05;10.60;40.95
79024;DHT22;70306;44.764;37.688;2024-03-02T06:04:09;10.68;41.81
79024;DHT22;70306;44.764;37.688;2024-03-02T06:05:12;10.70;40.91
79024;DHT22;70306;44.764;37.688;2024-03-02T06:06:19;10.79;39.86
79024;DHT22;70306;44.764;37.688;2024-03-02T06:07:22;10.81;40.25
79024;DHT22;70306;44.764;37.688;2024-03-02T06:08:24;10.84;38.93
79024;DHT22;70306;44.764;37.688;2024-03-02T06:09:26;10.83;39.44
79024;DHT22;70306;44.764;37.688;2024-03-02T06:10:28;10.87;39.71
79024;DHT22;70306;44.764;37.688;2024-03-02T06:11:30;10.89;39.73
79024;DHT22;70306;44.764;37.688;2024-03-02T06:12:31;10.94;40.34
79024;DHT22;70306;44.764;37.688;2024-03-02T06:13:34;11.00;40.07
79024;DHT22;70306;44.764;37.688;2024-03-02T06:14:55;11.08;40.37
79024;DHT22;70306;44.764;37.688;2024-03-02T06:15:57;11.13;40.56
79024;DHT22;70306;44.764;37.688;2024-03-02T06:17:00;11.17;40.08
79024;DHT22;70306;44.764;37.688;2024-03-02T06:18:02;11.22;38.62
79024;DHT22;70306;44.764;37.688;2024-03-02T06:19:04;11.25;37.84
79024;DHT22;70306;44.764;37.688;2024-03-02T06:20:07;11.25;38.56
79024;DHT22;70306;44.764;37.688;2024-03-02T06:21:09;11.27;38.27
79024;DHT22;70306;44.764;37.688;2024-03-02T06:22:11;11.27;38.62
79024;DHT22;70306;44.764;37.688;2024-03-02T06:23:13;11.27;38.26
79024;DHT22;70306;44.764;37.688;2024-03-02T06:24:15;11.31;38.68
79024;DHT22;70306;44.764;37.688;2024-03-02T06:25:17;11.25;38.38
79024;DHT22;70306;44.764;37.688;2024-03-02T06:26:19;11.21;38.70
79024;DHT22;70306;44.764;37.688;2024-03-02T06:27:21;11.24;38.95
79024;DHT22;70306;44.764;37.688;2024-03-02T06:28:23;11.29;38.77
79024;DHT22;70306;44.764;37.688;2024-03-02T06:29:25;11.27;38.55
79024;DHT22;70306;44.764;37.688;2024-03-02T06:30:27;11.32;38.88
79024;DHT22;70306;44.764;37.688;2024-03-02T06:31:28;11.29;38.22
79024;DHT22;70306;44.764;37.688;2024-03-02T06:32:31;11.35;38.89
79024;DHT22;70306;44.764;37.688;2024-03-02T06:33:33;11.40;38.96
79024;DHT22;70306;44.764;37.688;2024-03-02T06:34:35;11.39;38.86
79024;DHT22;70306;44.764;37.688;2024-03-02T06:35:38;11.46;38.91
79024;DHT22;70306;44.764;37.688;2024-03-02T06:36:40;11.54;38.16
79024;DHT22;70306;44.764;37.688;2024-03-02T06:37:44;11.58;37.38
79024;DHT22;70306;44.764;37.688;2024-03-02T06:38:45;11.59;37.84
79024;DHT22;70306;44.764;37.688;2024-03-02T06:39:47;11.58;37.39
79024;DHT22;70306;44.764;37.688;2024-03-02T06:40:49;11.59;37.72
79024;DHT22;70306;44.764;37.688;2024-03-02T06:42:11;11.63;37.30
79024;DHT22;70306;44.764;37.688;2024-03-02T06:43:13;11.67;36.91
79024;DHT22;70306;44.764;37.688;2024-03-02T06:44:15;11.76;37.84
79024;DHT22;70306;44.764;37.688;2024-03-02T06:45:17;11.84;37.58
79024;DHT22;70306;44.764;37.688;2024-03-02T06:46:19;11.91;38.02
79024;DHT22;70306;44.764;37.688;2024-03-02T06:47:21;12.01;37.99
79024;DHT22;70306;44.764;37.688;2024-03-02T06:48:23;12.07;38.00
79024;DHT22;70306;44.764;37.688;2024-03-02T06:49:27;12.13;37.24
79024;DHT22;70306;44.764;37.688;2024-03-02T06:50:29;12.14;37.66
79024;DHT22;70306;44.764;37.688;2024-03-02T06:51:31;12.21;38.35
79024;DHT22;70306;44.764;37.688;2024-03-02T06:52:33;12.22;36.79
79024;DHT22;70306;44.764;37.688;2024-03-02T06:53:35;12.29;36.99
79024;DHT22;70306;44.764;37.688;2024-03-02T06:54:37;12.36;36.99
79024;DHT22;70306;44.764;37.688;2024-03-02T06:55:39;12.38;36.13
79024;DHT22;70306;44.764;37.688;2024-03-02T06:56:41;12.41;35.94
79024;DHT22;70306;44.764;37.688;2024-03-02T06:57:44;12.45;35.69
79024;DHT22;70306;44.764;37.688;2024-03-02T06:58:46;12.48;35.86
79024;DHT22;70306;44.764;37.688;2024-03-02T06:59:48;12.52;35.61
79024;DHT22;70306;44.764;37.688;2024-03-02T07:00:52;12.52;35.78
79024;DHT22;70306;44.764;37.688;2024-03-02T07:01:54;12.62;36.12
79024;DHT22;70306;44.764;37.688;2024-03-02T07:02:56;12.66;35.79
79024;DHT22;70306;44.764;37.688;2024-03-02T07:03:59;12.73;36.44
79024;DHT22;70306;44.764;37.688;2024-03-02T07:05:00;12.81;37.04
79024;DHT22;70306;44.764;37.688;2024-03-02T07:06:21;12.94;36.37
79024;DHT22;70306;44.764;37.688;2024-03-02T07:07:23;13.03;36.76
79024;DHT22;70306;44.764;37.688;2024-03-02T07:08:25;13.11;36.13
79024;DHT22;70306;44.764;37.688;2024-03-02T07:09:27;13.19;35.86
79024;DHT22;70306;44.764;37.688;2024-03-02T07:10:28;13.25;36.27
79024;DHT22;70306;44.764;37.688;2024-03-02T07:11:31;13.29;35.21
79024;DHT22;70306;44.764;37.688;2024-03-02T07:12:33;13.36;35.28
79024;DHT22;70306;44.764;37.688;2024-03-02T07:13:35;13.48;35.38
79024;DHT22;70306;44.764;37.688;2024-03-02T07:14:37;13.55;35.00
79024;DHT22;70306;44.764;37.688;2024-03-02T07:15:57;13.53;34.09
79024;DHT22;70306;44.764;37.688;2024-03-02T07:17:12;13.56;35.21
79024;DHT22;70306;44.764;37.688;2024-03-02T07:18:14;13.62;34.84
79024;DHT22;70306;44.764;37.688;2024-03-02T07:19:20;13.70;33.29
79024;DHT22;70306;44.764;37.688;2024-03-02T07:20:22;13.71;34.00
79024;DHT22;70306;44.764;37.688;2024-03-02T07:21:24;13.78;35.17
79024;DHT22;70306;44.764;37.688;2024-03-02T07:22:26;13.87;34.96
79024;DHT22;70306;44.764;37.688;2024-03-02T07:23:28;13.90;33.72
79024;DHT22;70306;44.764;37.688;2024-03-02T07:24:32;13.95;33.86
79024;DHT22;70306;44.764;37.688;2024-03-02T07:25:33;14.00;34.46
79024;DHT22;70306;44.764;37.688;2024-03-02T07:26:36;14.09;34.79
79024;DHT22;70306;44.764;37.688;2024-03-02T07:27:38;14.18;34.08
79024;DHT22;70306;44.764;37.688;2024-03-02T07:28:41;14.21;33.64
79024;DHT22;70306;44.764;37.688;2024-03-02T07:29:44;14.28;32.40
79024;DHT22;70306;44.764;37.688;2024-03-02T07:30:46;14.35;31.76
79024;DHT22;70306;44.764;37.688;2024-03-02T07:31:48;14.40;32.63
79024;DHT22;70306;44.764;37.688;2024-03-02T07:32:50;14.45;32.82
79024;DHT22;70306;44.764;37.688;2024-03-02T07:33:52;14.46;33.73
79024;DHT22;70306;44.764;37.688;2024-03-02T07:34:54;14.46;32.72
79024;DHT22;70306;44.764;37.688;2024-03-02T07:35:57;14.49;32.22
79024;DHT22;70306;44.764;37.688;2024-03-02T07:37:00;14.47;32.02
79024;DHT22;70306;44.764;37.688;2024-03-02T07:38:03;14.42;31.48
79024;DHT22;70306;44.764;37.688;2024-03-02T07:39:05;14.45;31.91
79024;DHT22;70306;44.764;37.688;2024-03-02T07:40:08;14.49;31.08
79024;DHT22;70306;44.764;37.688;2024-03-02T07:41:13;14.47;31.02
79024;DHT22;70306;44.764;37.688;2024-03-02T07:42:15;14.47;31.37
79024;DHT22;70306;44.764;37.688;2024-03-02T07:43:18;14.46;33.07
79024;DHT22;70306;44.764;37.688;2024-03-02T07:44:20;14.50;31.51
79024;DHT22;70306;44.764;37.688;2024-03-02T07:45:22;14.50;31.34
79024;DHT22;70306;44.764;37.688;2024-03-02T07:46:45;14.55;31.60
79024;DHT22;70306;44.764;37.688;2024-03-02T07:47:53;14.53;32.50
79024;DHT22;70306;44.764;37.688;2024-03-02T07:48:55;14.55;30.92
79024;DHT22;70306;44.764;37.688;2024-03-02T07:49:57;14.50;31.85
79024;DHT22;70306;44.764;37.688;2024-03-02T07:50:59;14.56;32.74
79024;DHT22;70306;44.764;37.688;2024-03-02T07:52:04;14.59;31.89
79024;DHT22;70306;44.764;37.688;2024-03-02T07:53:06;14.59;32.47
79024;DHT22;70306;44.764;37.688;2024-03-02T07:54:09;14.62;32.79
79024;DHT22;70306;44.764;37.688;2024-03-02T07:55:11;14.69;32.46
79024;DHT22;70306;44.764;37.688;2024-03-02T07:56:13;14.77;32.08
79024;DHT22;70306;44.764;37.688;2024-03-02T07:57:16;14.81;32.46
79024;DHT22;70306;44.764;37.688;2024-03-02T07:58:17;14.83;31.86
79024;DHT22;70306;44.764;37.688;2024-03-02T07:59:22;14.88;32.24
79024;DHT22;70306;44.764;37.688;2024-03-02T08:00:26;14.92;31.67
79024;DHT22;70306;44.764;37.688;2024-03-02T08:01:30;14.99;31.86
79024;DHT22;70306;44.764;37.688;2024-03-02T08:02:32;15.01;32.56
79024;DHT22;70306;44.764;37.688;2024-03-02T08:03:34;15.04;32.37
79024;DHT22;70306;44.764;37.688;2024-03-02T08:04:36;15.06;31.78
79024;DHT22;70306;44.764;37.688;2024-03-02T08:05:39;14.94;30.77
79024;DHT22;70306;44.764;37.688;2024-03-02T08:06:40;14.88;31.63
79024;DHT22;70306;44.764;37.688;2024-03-02T08:08:04;14.94;32.73
79024;DHT22;70306;44.764;37.688;2024-03-02T08:09:06;14.99;32.35
79024;DHT22;70306;44.764;37.688;2024-03-02T08:10:12;15.05;32.42
79024;DHT22;70306;44.764;37.688;2024-03-02T08:11:14;15.05;32.10
79024;DHT22;70306;44.764;37.688;2024-03-02T08:12:16;15.02;31.49
79024;DHT22;70306;44.764;37.688;2024-03-02T08:13:17;15.02;31.25
79024;DHT22;70306;44.764;37.688;2024-03-02T08:14:19;15.05;31.94
79024;DHT22;70306;44.764;37.688;2024-03-02T08:15:21;15.06;31.38
79024;DHT22;70306;44.764;37.688;2024-03-02T08:16:23;15.11;31.77
79024;DHT22;70306;44.764;37.688;2024-03-02T08:17:25;15.14;32.96
79024;DHT22;70306;44.764;37.688;2024-03-02T08:18:27;15.19;32.87
79024;DHT22;70306;44.764;37.688;2024-03-02T08:19:29;15.21;32.79
79024;DHT22;70306;44.764;37.688;2024-03-02T08:20:46;15.28;32.10
79024;DHT22;70306;44.764;37.688;2024-03-02T08:21:48;15.26;31.93
79024;DHT22;70306;44.764;37.688;2024-03-02T08:22:50;15.29;33.26
79024;DHT22;70306;44.764;37.688;2024-03-02T08:23:52;15.19;31.97
79024;DHT22;70306;44.764;37.688;2024-03-02T08:24:54;15.18;32.65
79024;DHT22;70306;44.764;37.688;2024-03-02T08:25:59;15.18;32.42
79024;DHT22;70306;44.764;37.688;2024-03-02T08:27:01;15.25;32.65
79024;DHT22;70306;44.764;37.688;2024-03-02T08:28:03;15.31;32.58
79024;DHT22;70306;44.764;37.688;2024-03-02T08:29:06;15.35;31.95
79024;DHT22;70306;44.764;37.688;2024-03-02T08:30:26;15.40;31.88
79024;DHT22;70306;44.764;37.688;2024-03-02T08:31:28;15.42;32.02
79024;DHT22;70306;44.764;37.688;2024-03-02T08:32:30;15.42;32.70
79024;DHT22;70306;44.764;37.688;2024-03-02T08:33:32;15.36;31.27
79024;DHT22;70306;44.764;37.688;2024-03-02T08:34:34;15.33;32.05
79024;DHT22;70306;44.764;37.688;2024-03-02T08:35:36;15.39;32.77
79024;DHT22;70306;44.764;37.688;2024-03-02T08:36:38;15.40;31.97
79024;DHT22;70306;44.764;37.688;2024-03-02T08:37:41;15.42;33.17
79024;DHT22;70306;44.764;37.688;2024-03-02T08:38:43;15.43;32.70
79024;DHT22;70306;44.764;37.688;2024-03-02T08:39:45;15.47;32.05
79024;DHT22;70306;44.764;37.688;2024-03-02T08:40:47;15.51;32.75
79024;DHT22;70306;44.764;37.688;2024-03-02T08:41:49;15.57;32.28
79024;DHT22;70306;44.764;37.688;2024-03-02T08:42:52;15.57;31.57
79024;DHT22;70306;44.764;37.688;2024-03-02T08:43:54;15.47;32.21
79024;DHT22;70306;44.764;37.688;2024-03-02T08:44:55;15.50;32.73
79024;DHT22;70306;44.764;37.688;2024-03-02T08:45:57;15.53;32.55
79024;DHT22;70306;44.764;37.688;2024-03-02T08:46:59;15.51;31.65
79024;DHT22;70306;44.764;37.688;2024-03-02T08:48:01;15.44;31.13
79024;DHT22;70306;44.764;37.688;2024-03-02T08:49:04;15.44;32.37
79024;DHT22;70306;44.764;37.688;2024-03-02T08:50:06;15.46;32.43
79024;DHT22;70306;44.764;37.688;2024-03-02T08:51:09;15.47;32.75
79024;DHT22;70306;44.764;37.688;2024-03-02T08:52:11;15.53;33.13
79024;DHT22;70306;44.764;37.688;2024-03-02T08:53:14;15.54;31.89
79024;DHT22;70306;44.764;37.688;2024-03-02T08:54:21;15.56;32.13
79024;DHT22;70306;44.764;37.688;2024-03-02T08:55:23;15.50;31.31
79024;DHT22;70306;44.764;37.688;2024-03-02T08:56:25;15.43;31.27
79024;DHT22;70306;44.764;37.688;2024-03-02T08:57:26;15.42;31.52
79024;DHT22;70306;44.764;37.688;2024-03-02T08:58:28;15.46;32.05
79024;DHT22;70306;44.764;37.688;2024-03-02T08:59:30;15.50;31.99
79024;DHT22;70306;44.764;37.688;2024-03-02T09:00:32;15.60;32.38
79024;DHT22;70306;44.764;37.688;2024-03-02T09:01:34;15.60;32.85
79024;DHT22;70306;44.764;37.688;2024-03-02T09:02:36;15.61;31.90
79024;DHT22;70306;44.764;37.688;2024-03-02T09:03:38;15.63;32.47
79024;DHT22;70306;44.764;37.688;2024-03-02T09:04:40;15.64;32.04
79024;DHT22;70306;44.764;37.688;2024-03-02T09:05:42;15.67;31.91
79024;DHT22;70306;44.764;37.688;2024-03-02T09:06:44;15.66;32.71
79024;DHT22;70306;44.764;37.688;2024-03-02T09:07:46;15.71;31.48
79024;DHT22;70306;44.764;37.688;2024-03-02T09:08:47;15.64;30.84
79024;DHT22;70306;44.764;37.688;2024-03-02T09:09:50;15.53;30.92
79024;DHT22;70306;44.764;37.688;2024-03-02T09:10:54;15.49;30.76
79024;DHT22;70306;44.764;37.688;2024-03-02T09:11:56;15.50;31.21
79024;DHT22;70306;44.764;37.688;2024-03-02T09:12:59;15.59;31.51
79024;DHT22;70306;44.764;37.688;2024-03-02T09:14:01;15.60;31.17
79024;DHT22;70306;44.764;37.688;2024-03-02T09:15:03;15.66;31.98
79024;DHT22;70306;44.764;37.688;2024-03-02T09:16:05;15.68;31.52
79024;DHT22;70306;44.764;37.688;2024-03-02T09:17:08;15.71;31.87
79024;DHT22;70306;44.764;37.688;2024-03-02T09:18:12;15.67;31.26
79024;DHT22;70306;44.764;37.688;2024-03-02T09:19:13;15.67;32.46
79024;DHT22;70306;44.764;37.688;2024-03-02T09:21:36;15.56;33.51
79024;DHT22;70306;44.764;37.688;2024-03-02T09:22:38;15.59;33.02
79024;DHT22;70306;44.764;37.688;2024-03-02T09:23:39;15.56;31.48
79024;DHT22;70306;44.764;37.688;2024-03-02T09:24:41;15.54;31.71
79024;DHT22;70306;44.764;37.688;2024-03-02T09:25:43;15.49;32.69
79024;DHT22;70306;44.764;37.688;2024-03-02T09:26:45;15.44;32.37
79024;DHT22;70306;44.764;37.688;2024-03-02T09:27:47;15.42;32.44
79024;DHT22;70306;44.764;37.688;2024-03-02T09:28:48;15.46;33.04
79024;DHT22;70306;44.764;37.688;2024-03-02T09:29:50;15.46;33.08
79024;DHT22;70306;44.764;37.688;2024-03-02T09:30:52;15.46;33.08
79024;DHT22;70306;44.764;37.688;2024-03-02T09:31:54;15.51;32.95
79024;DHT22;70306;44.764;37.688;2024-03-02T09:32:56;15.57;33.02
79024;DHT22;70306;44.764;37.688;2024-03-02T09:33:58;15.66;33.36
79024;DHT22;70306;44.764;37.688;2024-03-02T09:34:59;15.70;33.18
79024;DHT22;70306;44.764;37.688;2024-03-02T09:36:02;15.77;32.41
79024;DHT22;70306;44.764;37.688;2024-03-02T09:37:03;15.78;32.47
79024;DHT22;70306;44.764;37.688;2024-03-02T09:38:05;15.83;32.01
79024;DHT22;70306;44.764;37.688;2024-03-02T09:39:08;15.90;32.98
79024;DHT22;70306;44.764;37.688;2024-03-02T09:40:11;15.97;32.57
79024;DHT22;70306;44.764;37.688;2024-03-02T09:41:14;16.04;32.51
79024;DHT22;70306;44.764;37.688;2024-03-02T09:42:16;16.02;32.31
79024;DHT22;70306;44.764;37.688;2024-03-02T09:43:18;15.97;31.96
79024;DHT22;70306;44.764;37.688;2024-03-02T09:44:20;15.91;31.78
79024;DHT22;70306;44.764;37.688;2024-03-02T09:45:24;15.87;31.52
79024;DHT22;70306;44.764;37.688;2024-03-02T09:46:26;15.85;30.52
79024;DHT22;70306;44.764;37.688;2024-03-02T09:47:28;15.85;31.93
79024;DHT22;70306;44.764;37.688;2024-03-02T09:48:30;15.95;32.59
79024;DHT22;70306;44.764;37.688;2024-03-02T09:49:32;16.00;31.50
79024;DHT22;70306;44.764;37.688;2024-03-02T09:50:33;16.01;32.29
79024;DHT22;70306;44.764;37.688;2024-03-02T09:51:37;16.01;30.53
79024;DHT22;70306;44.764;37.688;2024-03-02T09:52:39;15.95;30.44
79024;DHT22;70306;44.764;37.688;2024-03-02T09:53:41;15.92;30.24
79024;DHT22;70306;44.764;37.688;2024-03-02T09:54:43;15.88;30.66
79024;DHT22;70306;44.764;37.688;2024-03-02T09:55:46;15.87;31.71
79024;DHT22;70306;44.764;37.688;2024-03-02T09:56:49;15.85;32.56
79024;DHT22;70306;44.764;37.688;2024-03-02T09:57:52;15.94;34.03
79024;DHT22;70306;44.764;37.688;2024-03-02T09:58:54;16.02;32.66
79024;DHT22;70306;44.764;37.688;2024-03-02T09:59:56;16.09;32.14
79024;DHT22;70306;44.764;37.688;2024-03-02T10:00:57;16.08;31.04
79024;DHT22;70306;44.764;37.688;2024-03-02T10:02:00;16.05;30.81
79024;DHT22;70306;44.764;37.688;2024-03-02T10:03:03;15.97;31.28
79024;DHT22;70306;44.764;37.688;2024-03-02T10:04:07;15.95;31.47
79024;DHT22;70306;44.764;37.688;2024-03-02T10:05:10;15.95;32.04
79024;DHT22;70306;44.764;37.688;2024-03-02T10:06:25;15.97;33.35
79024;DHT22;70306;44.764;37.688;2024-03-02T10:07:27;16.00;33.27
79024;DHT22;70306;44.764;37.688;2024-03-02T10:08:42;16.05;32.51
79024;DHT22;70306;44.764;37.688;2024-03-02T10:09:47;16.06;31.49
79024;DHT22;70306;44.764;37.688;2024-03-02T10:10:48;16.11;32.24
79024;DHT22;70306;44.764;37.688;2024-03-02T10:11:50;16.19;32.96
79024;DHT22;70306;44.764;37.688;2024-03-02T10:13:04;16.26;32.74
79024;DHT22;70306;44.764;37.688;2024-03-02T10:14:10;16.26;32.74
79024;DHT22;70306;44.764;37.688;2024-03-02T10:15:13;16.23;31.95
79024;DHT22;70306;44.764;37.688;2024-03-02T10:16:15;16.22;33.22
79024;DHT22;70306;44.764;37.688;2024-03-02T10:17:18;16.19;33.45
79024;DHT22;70306;44.764;37.688;2024-03-02T10:18:26;16.20;32.29
79024;DHT22;70306;44.764;37.688;2024-03-02T10:19:30;16.22;33.18
79024;DHT22;70306;44.764;37.688;2024-03-02T10:20:36;16.20;32.57
79024;DHT22;70306;44.764;37.688;2024-03-02T10:21:40;16.20;33.05
79024;DHT22;70306;44.764;37.688;2024-03-02T10:22:42;16.11;33.56
79024;DHT22;70306;44.764;37.688;2024-03-02T10:23:44;16.12;33.42
79024;DHT22;70306;44.764;37.688;2024-03-02T10:24:45;16.02;33.38
79024;DHT22;70306;44.764;37.688;2024-03-02T10:25:47;16.00;34.02
79024;DHT22;70306;44.764;37.688;2024-03-02T10:26:50;16.00;33.20
79024;DHT22;70306;44.764;37.688;2024-03-02T10:27:52;15.95;33.08
79024;DHT22;70306;44.764;37.688;2024-03-02T10:28:53;15.97;33.32
79024;DHT22;70306;44.764;37.688;2024-03-02T10:30:02;15.97;33.31
79024;DHT22;70306;44.764;37.688;2024-03-02T10:31:04;15.97;33.98
79024;DHT22;70306;44.764;37.688;2024-03-02T10:32:10;15.92;34.37
79024;DHT22;70306;44.764;37.688;2024-03-02T10:33:14;15.91;34.24
79024;DHT22;70306;44.764;37.688;2024-03-02T10:34:16;15.84;34.15
79024;DHT22;70306;44.764;37.688;2024-03-02T10:35:18;15.81;34.74
79024;DHT22;70306;44.764;37.688;2024-03-02T10:36:21;15.77;35.21
79024;DHT22;70306;44.764;37.688;2024-03-02T10:37:23;15.77;35.66
79024;DHT22;70306;44.764;37.688;2024-03-02T10:38:25;15.78;34.30
79024;DHT22;70306;44.764;37.688;2024-03-02T10:39:28;15.80;34.28
79024;DHT22;70306;44.764;37.688;2024-03-02T10:40:31;15.84;34.23
79024;DHT22;70306;44.764;37.688;2024-03-02T10:41:38;15.83;33.90
79024;DHT22;70306;44.764;37.688;2024-03-02T10:42:41;15.78;34.26
79024;DHT22;70306;44.764;37.688;2024-03-02T10:43:43;15.87;34.29
79024;DHT22;70306;44.764;37.688;2024-03-02T10:44:46;15.85;33.76
79024;DHT22;70306;44.764;37.688;2024-03-02T10:45:49;15.88;34.61
79024;DHT22;70306;44.764;37.688;2024-03-02T10:46:53;15.94;33.34
79024;DHT22;70306;44.764;37.688;2024-03-02T10:47:56;15.98;33.71
79024;DHT22;70306;44.764;37.688;2024-03-02T10:49:00;16.06;34.51
79024;DHT22;70306;44.764;37.688;2024-03-02T10:50:04;16.16;33.33
79024;DHT22;70306;44.764;37.688;2024-03-02T10:51:09;16.23;33.70
79024;DHT22;70306;44.764;37.688;2024-03-02T10:52:11;16.30;33.54
79024;DHT22;70306;44.764;37.688;2024-03-02T10:53:13;16.37;33.18
79024;DHT22;70306;44.764;37.688;2024-03-02T10:54:15;16.39;33.37
79024;DHT22;70306;44.764;37.688;2024-03-02T10:55:17;16.39;33.13
79024;DHT22;70306;44.764;37.688;2024-03-02T10:56:28;16.43;34.16
79024;DHT22;70306;44.764;37.688;2024-03-02T10:57:33;16.43;34.06
79024;DHT22;70306;44.764;37.688;2024-03-02T10:58:38;16.45;33.94
79024;DHT22;70306;44.764;37.688;2024-03-02T10:59:51;16.39;33.57